sensor_id;sensor_type;location;lat;lon;timestamp;pressure;altitude;pressure_sealevel;temperature
37536;BMP180;23379;51.554;6.736;2023-09-19T00:00:03;100282.00;;;16.10
37536;BMP180;23379;51.554;6.736;2023-09-19T00:02:29;100277.00;;;16.10
37536;BMP180;23379;51.554;6.736;2023-09-19T00:04:54;100280.00;;;16.00
37536;BMP180;23379;51.554;6.736;2023-09-19T00:07:19;100297.00;;;16.00
37536;BMP180;23379;51.554;6.736;2023-09-19T00:09:46;100293.00;;;16.10
37536;BMP180;23379;51.554;6.736;2023-09-19T00:12:11;100298.00;;;16.00
37536;BMP180;23379;51.554;6.736;2023-09-19T00:14:38;100296.00;;;16.00
37536;BMP180;23379;51.554;6.736;2023-09-19T00:17:03;100293.00;;;16.00
37536;BMP180;23379;51.554;6.736;2023-09-19T00:19:33;100290.00;;;16.00
37536;BMP180;23379;51.554;6.736;2023-09-19T00:21:58;100292.00;;;15.90
37536;BMP180;23379;51.554;6.736;2023-09-19T00:24:24;100291.00;;;16.10
37536;BMP180;23379;51.554;6.736;2023-09-19T00:26:49;100296.00;;;16.00
37536;BMP180;23379;51.554;6.736;2023-09-19T00:29:14;100297.00;;;16.00
37536;BMP180;23379;51.554;6.736;2023-09-19T00:31:44;100301.00;;;15.90
37536;BMP180;23379;51.554;6.736;2023-09-19T00:34:10;100297.00;;;16.00
37536;BMP180;23379;51.554;6.736;2023-09-19T00:36:36;100305.00;;;15.90
37536;BMP180;23379;51.554;6.736;2023-09-19T00:39:03;100303.00;;;15.90
37536;BMP180;23379;51.554;6.736;2023-09-19T00:41:31;100311.00;;;16.00
37536;BMP180;23379;51.554;6.736;2023-09-19T00:43:56;100311.00;;;15.70
37536;BMP180;23379;51.554;6.736;2023-09-19T00:46:21;100303.00;;;15.70
37536;BMP180;23379;51.554;6.736;2023-09-19T00:48:47;100308.00;;;15.80
37536;BMP180;23379;51.554;6.736;2023-09-19T00:51:12;100312.00;;;15.70
37536;BMP180;23379;51.554;6.736;2023-09-19T00:53:44;100316.00;;;15.70
37536;BMP180;23379;51.554;6.736;2023-09-19T00:56:11;100325.00;;;15.60
37536;BMP180;23379;51.554;6.736;2023-09-19T00:58:37;100335.00;;;15.60
37536;BMP180;23379;51.554;6.736;2023-09-19T01:01:02;100330.00;;;15.60
37536;BMP180;23379;51.554;6.736;2023-09-19T01:03:32;100335.00;;;15.60
37536;BMP180;23379;51.554;6.736;2023-09-19T01:05:59;100334.00;;;15.50
37536;BMP180;23379;51.554;6.736;2023-09-19T01:08:25;100340.00;;;15.60
37536;BMP180;23379;51.554;6.736;2023-09-19T01:11:06;100347.00;;;15.50
37536;BMP180;23379;51.554;6.736;2023-09-19T01:18:45;100334.00;;;15.40
37536;BMP180;23379;51.554;6.736;2023-09-19T01:21:23;100337.00;;;15.40
37536;BMP180;23379;51.554;6.736;2023-09-19T01:31:45;100347.00;;;15.30
37536;BMP180;23379;51.554;6.736;2023-09-19T01:34:10;100360.00;;;15.30
37536;BMP180;23379;51.554;6.736;2023-09-19T01:36:36;100370.00;;;15.30
37536;BMP180;23379;51.554;6.736;2023-09-19T01:39:11;100365.00;;;15.20
37536;BMP180;23379;51.554;6.736;2023-09-19T01:41:47;100371.00;;;15.20
37536;BMP180;23379;51.554;6.736;2023-09-19T01:44:21;100366.00;;;15.20
37536;BMP180;23379;51.554;6.736;2023-09-19T01:46:47;100368.00;;;15.20
37536;BMP180;23379;51.554;6.736;2023-09-19T01:49:18;100372.00;;;15.20
37536;BMP180;23379;51.554;6.736;2023-09-19T01:51:51;100369.00;;;15.10
37536;BMP180;23379;51.554;6.736;2023-09-19T01:54:23;100384.00;;;15.20
37536;BMP180;23379;51.554;6.736;2023-09-19T01:56:53;100376.00;;;15.20
37536;BMP180;23379;51.554;6.736;2023-09-19T01:59:25;100371.00;;;15.10
37536;BMP180;23379;51.554;6.736;2023-09-19T02:01:52;100371.00;;;15.20
37536;BMP180;23379;51.554;6.736;2023-09-19T02:04:18;100381.00;;;15.10
37536;BMP180;23379;51.554;6.736;2023-09-19T02:06:43;100375.00;;;15.00
37536;BMP180;23379;51.554;6.736;2023-09-19T02:09:09;100380.00;;;15.00
37536;BMP180;23379;51.554;6.736;2023-09-19T02:11:34;100388.00;;;15.00
37536;BMP180;23379;51.554;6.736;2023-09-19T02:14:00;100381.00;;;14.90
37536;BMP180;23379;51.554;6.736;2023-09-19T02:16:25;100390.00;;;14.90
37536;BMP180;23379;51.554;6.736;2023-09-19T02:18:51;100390.00;;;14.80
37536;BMP180;23379;51.554;6.736;2023-09-19T02:21:16;100397.00;;;14.90
37536;BMP180;23379;51.554;6.736;2023-09-19T02:23:42;100384.00;;;14.90
37536;BMP180;23379;51.554;6.736;2023-09-19T02:26:07;100390.00;;;14.90
37536;BMP180;23379;51.554;6.736;2023-09-19T02:28:33;100396.00;;;14.80
37536;BMP180;23379;51.554;6.736;2023-09-19T02:30:59;100379.00;;;14.90
37536;BMP180;23379;51.554;6.736;2023-09-19T02:33:24;100391.00;;;14.90
37536;BMP180;23379;51.554;6.736;2023-09-19T02:35:49;100404.00;;;14.90
37536;BMP180;23379;51.554;6.736;2023-09-19T02:38:15;100397.00;;;14.90
37536;BMP180;23379;51.554;6.736;2023-09-19T02:40:43;100399.00;;;14.80
37536;BMP180;23379;51.554;6.736;2023-09-19T02:43:08;100404.00;;;15.00
37536;BMP180;23379;51.554;6.736;2023-09-19T02:45:34;100405.00;;;15.00
37536;BMP180;23379;51.554;6.736;2023-09-19T02:47:59;100396.00;;;14.90
37536;BMP180;23379;51.554;6.736;2023-09-19T02:50:25;100404.00;;;14.90
37536;BMP180;23379;51.554;6.736;2023-09-19T02:52:50;100397.00;;;14.90
37536;BMP180;23379;51.554;6.736;2023-09-19T02:55:16;100416.00;;;14.90
37536;BMP180;23379;51.554;6.736;2023-09-19T02:57:50;100411.00;;;14.90
37536;BMP180;23379;51.554;6.736;2023-09-19T03:00:16;100415.00;;;14.90
37536;BMP180;23379;51.554;6.736;2023-09-19T03:02:42;100409.00;;;14.90
37536;BMP180;23379;51.554;6.736;2023-09-19T03:05:08;100425.00;;;14.90
37536;BMP180;23379;51.554;6.736;2023-09-19T03:07:34;100429.00;;;14.90
37536;BMP180;23379;51.554;6.736;2023-09-19T03:09:59;100419.00;;;14.90
37536;BMP180;23379;51.554;6.736;2023-09-19T03:12:25;100424.00;;;15.00
37536;BMP180;23379;51.554;6.736;2023-09-19T03:14:51;100421.00;;;14.90
37536;BMP180;23379;51.554;6.736;2023-09-19T03:17:16;100421.00;;;14.90
37536;BMP180;23379;51.554;6.736;2023-09-19T03:19:42;100420.00;;;14.90
37536;BMP180;23379;51.554;6.736;2023-09-19T03:22:07;100424.00;;;14.80
37536;BMP180;23379;51.554;6.736;2023-09-19T03:24:32;100422.00;;;14.80
37536;BMP180;23379;51.554;6.736;2023-09-19T03:26:58;100429.00;;;14.80
37536;BMP180;23379;51.554;6.736;2023-09-19T03:29:23;100430.00;;;14.70
37536;BMP180;23379;51.554;6.736;2023-09-19T03:31:48;100440.00;;;14.70
37536;BMP180;23379;51.554;6.736;2023-09-19T03:34:14;100431.00;;;14.70
37536;BMP180;23379;51.554;6.736;2023-09-19T03:36:39;100440.00;;;14.80
37536;BMP180;23379;51.554;6.736;2023-09-19T03:39:06;100440.00;;;14.70
37536;BMP180;23379;51.554;6.736;2023-09-19T03:41:31;100436.00;;;14.80
37536;BMP180;23379;51.554;6.736;2023-09-19T03:43:58;100433.00;;;14.60
37536;BMP180;23379;51.554;6.736;2023-09-19T03:46:23;100438.00;;;14.60
37536;BMP180;23379;51.554;6.736;2023-09-19T03:48:50;100439.00;;;14.80
37536;BMP180;23379;51.554;6.736;2023-09-19T03:51:15;100428.00;;;14.90
37536;BMP180;23379;51.554;6.736;2023-09-19T03:53:40;100433.00;;;14.70
37536;BMP180;23379;51.554;6.736;2023-09-19T03:56:06;100432.00;;;14.70
37536;BMP180;23379;51.554;6.736;2023-09-19T03:58:31;100442.00;;;14.70
37536;BMP180;23379;51.554;6.736;2023-09-19T04:00:57;100427.00;;;14.70
37536;BMP180;23379;51.554;6.736;2023-09-19T04:03:23;100440.00;;;14.70
37536;BMP180;23379;51.554;6.736;2023-09-19T04:05:48;100433.00;;;14.70
37536;BMP180;23379;51.554;6.736;2023-09-19T04:08:14;100428.00;;;14.60
37536;BMP180;23379;51.554;6.736;2023-09-19T04:10:41;100435.00;;;14.80
37536;BMP180;23379;51.554;6.736;2023-09-19T04:13:07;100439.00;;;14.40
37536;BMP180;23379;51.554;6.736;2023-09-19T04:15:32;100430.00;;;14.60
37536;BMP180;23379;51.554;6.736;2023-09-19T04:17:58;100434.00;;;14.70
37536;BMP180;23379;51.554;6.736;2023-09-19T04:20:23;100426.00;;;14.80
37536;BMP180;23379;51.554;6.736;2023-09-19T04:22:48;100435.00;;;14.60
37536;BMP180;23379;51.554;6.736;2023-09-19T04:25:13;100444.00;;;14.50
37536;BMP180;23379;51.554;6.736;2023-09-19T04:27:39;100441.00;;;14.60
37536;BMP180;23379;51.554;6.736;2023-09-19T04:30:06;100435.00;;;14.60
37536;BMP180;23379;51.554;6.736;2023-09-19T04:32:35;100438.00;;;14.60
37536;BMP180;23379;51.554;6.736;2023-09-19T04:35:01;100438.00;;;14.40
37536;BMP180;23379;51.554;6.736;2023-09-19T04:37:28;100439.00;;;14.40
37536;BMP180;23379;51.554;6.736;2023-09-19T04:39:53;100432.00;;;14.50
37536;BMP180;23379;51.554;6.736;2023-09-19T04:42:19;100440.00;;;14.60
37536;BMP180;23379;51.554;6.736;2023-09-19T04:44:44;100443.00;;;14.60
37536;BMP180;23379;51.554;6.736;2023-09-19T04:47:10;100445.00;;;14.60
37536;BMP180;23379;51.554;6.736;2023-09-19T04:49:37;100443.00;;;14.60
37536;BMP180;23379;51.554;6.736;2023-09-19T04:52:02;100450.00;;;14.50
37536;BMP180;23379;51.554;6.736;2023-09-19T04:54:27;100448.00;;;14.50
37536;BMP180;23379;51.554;6.736;2023-09-19T04:56:53;100448.00;;;14.50
37536;BMP180;23379;51.554;6.736;2023-09-19T04:59:18;100452.00;;;14.60
37536;BMP180;23379;51.554;6.736;2023-09-19T05:01:43;100461.00;;;14.60
37536;BMP180;23379;51.554;6.736;2023-09-19T05:04:09;100477.00;;;14.70
37536;BMP180;23379;51.554;6.736;2023-09-19T05:06:34;100482.00;;;14.50
37536;BMP180;23379;51.554;6.736;2023-09-19T05:09:00;100481.00;;;14.60
37536;BMP180;23379;51.554;6.736;2023-09-19T05:11:25;100473.00;;;14.50
37536;BMP180;23379;51.554;6.736;2023-09-19T05:13:51;100490.00;;;14.50
37536;BMP180;23379;51.554;6.736;2023-09-19T05:16:18;100508.00;;;14.70
37536;BMP180;23379;51.554;6.736;2023-09-19T05:18:43;100508.00;;;14.70
37536;BMP180;23379;51.554;6.736;2023-09-19T05:21:09;100500.00;;;14.70
37536;BMP180;23379;51.554;6.736;2023-09-19T05:23:34;100503.00;;;14.80
37536;BMP180;23379;51.554;6.736;2023-09-19T05:25:59;100503.00;;;14.70
37536;BMP180;23379;51.554;6.736;2023-09-19T05:28:25;100512.00;;;14.80
37536;BMP180;23379;51.554;6.736;2023-09-19T05:30:51;100516.00;;;14.80
37536;BMP180;23379;51.554;6.736;2023-09-19T05:33:18;100516.00;;;14.70
37536;BMP180;23379;51.554;6.736;2023-09-19T05:35:43;100529.00;;;14.90
37536;BMP180;23379;51.554;6.736;2023-09-19T05:38:09;100524.00;;;14.90
37536;BMP180;23379;51.554;6.736;2023-09-19T05:40:34;100525.00;;;14.80
37536;BMP180;23379;51.554;6.736;2023-09-19T05:43:00;100524.00;;;15.00
37536;BMP180;23379;51.554;6.736;2023-09-19T05:45:25;100520.00;;;15.10
37536;BMP180;23379;51.554;6.736;2023-09-19T05:47:52;100524.00;;;15.10
37536;BMP180;23379;51.554;6.736;2023-09-19T05:50:21;100529.00;;;15.00
37536;BMP180;23379;51.554;6.736;2023-09-19T05:52:53;100525.00;;;15.10
37536;BMP180;23379;51.554;6.736;2023-09-19T05:55:19;100526.00;;;15.30
37536;BMP180;23379;51.554;6.736;2023-09-19T05:57:49;100520.00;;;15.10
37536;BMP180;23379;51.554;6.736;2023-09-19T06:00:15;100523.00;;;15.20
37536;BMP180;23379;51.554;6.736;2023-09-19T06:02:42;100517.00;;;15.20
37536;BMP180;23379;51.554;6.736;2023-09-19T06:05:10;100518.00;;;15.20
37536;BMP180;23379;51.554;6.736;2023-09-19T06:07:36;100519.00;;;15.30
37536;BMP180;23379;51.554;6.736;2023-09-19T06:10:05;100520.00;;;15.30
37536;BMP180;23379;51.554;6.736;2023-09-19T06:12:31;100521.00;;;15.20
37536;BMP180;23379;51.554;6.736;2023-09-19T06:14:58;100521.00;;;15.20
37536;BMP180;23379;51.554;6.736;2023-09-19T06:17:24;100523.00;;;15.20
37536;BMP180;23379;51.554;6.736;2023-09-19T06:19:49;100509.00;;;15.30
37536;BMP180;23379;51.554;6.736;2023-09-19T06:22:16;100527.00;;;15.40
37536;BMP180;23379;51.554;6.736;2023-09-19T06:24:43;100511.00;;;15.40
37536;BMP180;23379;51.554;6.736;2023-09-19T06:27:09;100509.00;;;15.40
37536;BMP180;23379;51.554;6.736;2023-09-19T06:29:34;100513.00;;;15.50
37536;BMP180;23379;51.554;6.736;2023-09-19T06:31:59;100521.00;;;15.50
37536;BMP180;23379;51.554;6.736;2023-09-19T06:34:25;100519.00;;;15.50
37536;BMP180;23379;51.554;6.736;2023-09-19T06:36:53;100521.00;;;15.60
37536;BMP180;23379;51.554;6.736;2023-09-19T06:39:20;100529.00;;;15.60
37536;BMP180;23379;51.554;6.736;2023-09-19T06:41:47;100529.00;;;15.50
37536;BMP180;23379;51.554;6.736;2023-09-19T06:44:14;100530.00;;;15.60
37536;BMP180;23379;51.554;6.736;2023-09-19T06:46:39;100537.00;;;15.80
37536;BMP180;23379;51.554;6.736;2023-09-19T06:49:07;100533.00;;;15.80
37536;BMP180;23379;51.554;6.736;2023-09-19T06:51:32;100540.00;;;15.80
37536;BMP180;23379;51.554;6.736;2023-09-19T06:53:59;100547.00;;;15.70
37536;BMP180;23379;51.554;6.736;2023-09-19T06:56:24;100539.00;;;15.80
37536;BMP180;23379;51.554;6.736;2023-09-19T06:58:50;100546.00;;;16.00
37536;BMP180;23379;51.554;6.736;2023-09-19T07:01:16;100542.00;;;16.10
37536;BMP180;23379;51.554;6.736;2023-09-19T07:03:41;100540.00;;;16.00
37536;BMP180;23379;51.554;6.736;2023-09-19T07:06:06;100540.00;;;15.90
37536;BMP180;23379;51.554;6.736;2023-09-19T07:08:33;100543.00;;;15.90
37536;BMP180;23379;51.554;6.736;2023-09-19T07:10:59;100545.00;;;16.00
37536;BMP180;23379;51.554;6.736;2023-09-19T07:13:24;100552.00;;;16.00
37536;BMP180;23379;51.554;6.736;2023-09-19T07:15:50;100551.00;;;16.00
37536;BMP180;23379;51.554;6.736;2023-09-19T07:18:16;100560.00;;;16.10
37536;BMP180;23379;51.554;6.736;2023-09-19T07:20:41;100565.00;;;16.10
37536;BMP180;23379;51.554;6.736;2023-09-19T07:23:13;100555.00;;;16.30
37536;BMP180;23379;51.554;6.736;2023-09-19T07:25:40;100562.00;;;16.40
37536;BMP180;23379;51.554;6.736;2023-09-19T07:28:05;100564.00;;;16.50
37536;BMP180;23379;51.554;6.736;2023-09-19T07:30:31;100566.00;;;16.30
37536;BMP180;23379;51.554;6.736;2023-09-19T07:32:56;100560.00;;;16.40
37536;BMP180;23379;51.554;6.736;2023-09-19T07:35:21;100567.00;;;16.50
37536;BMP180;23379;51.554;6.736;2023-09-19T07:37:47;100561.00;;;16.50
37536;BMP180;23379;51.554;6.736;2023-09-19T07:40:14;100564.00;;;16.60
37536;BMP180;23379;51.554;6.736;2023-09-19T07:42:40;100556.00;;;16.70
37536;BMP180;23379;51.554;6.736;2023-09-19T07:45:08;100574.00;;;16.70
37536;BMP180;23379;51.554;6.736;2023-09-19T07:47:34;100573.00;;;16.50
37536;BMP180;23379;51.554;6.736;2023-09-19T07:50:01;100576.00;;;16.80
37536;BMP180;23379;51.554;6.736;2023-09-19T07:52:28;100577.00;;;17.20
37536;BMP180;23379;51.554;6.736;2023-09-19T07:54:53;100570.00;;;17.20
37536;BMP180;23379;51.554;6.736;2023-09-19T07:57:18;100578.00;;;17.30
37536;BMP180;23379;51.554;6.736;2023-09-19T07:59:45;100578.00;;;17.30
37536;BMP180;23379;51.554;6.736;2023-09-19T08:02:10;100577.00;;;17.20
37536;BMP180;23379;51.554;6.736;2023-09-19T08:04:44;100588.00;;;17.30
37536;BMP180;23379;51.554;6.736;2023-09-19T08:07:11;100579.00;;;17.30
37536;BMP180;23379;51.554;6.736;2023-09-19T08:09:36;100591.00;;;17.40
37536;BMP180;23379;51.554;6.736;2023-09-19T08:12:03;100594.00;;;17.60
37536;BMP180;23379;51.554;6.736;2023-09-19T08:14:29;100596.00;;;17.60
37536;BMP180;23379;51.554;6.736;2023-09-19T08:16:57;100598.00;;;17.70
37536;BMP180;23379;51.554;6.736;2023-09-19T08:19:25;100593.00;;;17.60
37536;BMP180;23379;51.554;6.736;2023-09-19T08:21:56;100602.00;;;17.70
37536;BMP180;23379;51.554;6.736;2023-09-19T08:24:25;100594.00;;;18.20
37536;BMP180;23379;51.554;6.736;2023-09-19T08:26:53;100607.00;;;18.80
37536;BMP180;23379;51.554;6.736;2023-09-19T08:29:19;100611.00;;;18.70
37536;BMP180;23379;51.554;6.736;2023-09-19T08:31:45;100607.00;;;18.60
37536;BMP180;23379;51.554;6.736;2023-09-19T08:34:12;100613.00;;;18.80
37536;BMP180;23379;51.554;6.736;2023-09-19T08:36:37;100607.00;;;19.00
37536;BMP180;23379;51.554;6.736;2023-09-19T08:39:04;100619.00;;;19.70
37536;BMP180;23379;51.554;6.736;2023-09-19T08:41:29;100612.00;;;19.40
37536;BMP180;23379;51.554;6.736;2023-09-19T08:43:58;100602.00;;;18.90
37536;BMP180;23379;51.554;6.736;2023-09-19T08:46:23;100614.00;;;19.40
37536;BMP180;23379;51.554;6.736;2023-09-19T08:48:54;100607.00;;;20.00
37536;BMP180;23379;51.554;6.736;2023-09-19T08:51:26;100626.00;;;19.30
37536;BMP180;23379;51.554;6.736;2023-09-19T08:54:06;100606.00;;;20.20
37536;BMP180;23379;51.554;6.736;2023-09-19T08:56:32;100613.00;;;19.70
37536;BMP180;23379;51.554;6.736;2023-09-19T08:59:04;100610.00;;;20.20
37536;BMP180;23379;51.554;6.736;2023-09-19T09:01:32;100607.00;;;20.40
37536;BMP180;23379;51.554;6.736;2023-09-19T09:03:58;100612.00;;;20.10
37536;BMP180;23379;51.554;6.736;2023-09-19T09:06:24;100612.00;;;20.50
37536;BMP180;23379;51.554;6.736;2023-09-19T09:08:53;100617.00;;;20.80
37536;BMP180;23379;51.554;6.736;2023-09-19T09:11:18;100608.00;;;20.40
37536;BMP180;23379;51.554;6.736;2023-09-19T09:13:44;100608.00;;;20.20
37536;BMP180;23379;51.554;6.736;2023-09-19T09:16:10;100606.00;;;20.40
37536;BMP180;23379;51.554;6.736;2023-09-19T09:18:35;100598.00;;;21.00
37536;BMP180;23379;51.554;6.736;2023-09-19T09:21:01;100611.00;;;21.30
37536;BMP180;23379;51.554;6.736;2023-09-19T09:23:26;100601.00;;;20.50
37536;BMP180;23379;51.554;6.736;2023-09-19T09:25:54;100611.00;;;20.60
37536;BMP180;23379;51.554;6.736;2023-09-19T09:28:22;100601.00;;;20.20
37536;BMP180;23379;51.554;6.736;2023-09-19T09:30:48;100602.00;;;20.40
37536;BMP180;23379;51.554;6.736;2023-09-19T09:33:14;100601.00;;;19.70
37536;BMP180;23379;51.554;6.736;2023-09-19T09:36:00;100601.00;;;20.20
37536;BMP180;23379;51.554;6.736;2023-09-19T09:38:27;100600.00;;;20.00
37536;BMP180;23379;51.554;6.736;2023-09-19T09:40:57;100607.00;;;19.80
37536;BMP180;23379;51.554;6.736;2023-09-19T09:43:27;100605.00;;;20.70
37536;BMP180;23379;51.554;6.736;2023-09-19T09:46:26;100599.00;;;20.40
37536;BMP180;23379;51.554;6.736;2023-09-19T09:51:33;100597.00;;;20.80
37536;BMP180;23379;51.554;6.736;2023-09-19T09:56:51;100612.00;;;24.00
37536;BMP180;23379;51.554;6.736;2023-09-19T09:59:17;100615.00;;;23.10
37536;BMP180;23379;51.554;6.736;2023-09-19T10:01:46;100608.00;;;23.20
37536;BMP180;23379;51.554;6.736;2023-09-19T10:04:15;100605.00;;;22.50
37536;BMP180;23379;51.554;6.736;2023-09-19T10:06:53;100608.00;;;22.30
37536;BMP180;23379;51.554;6.736;2023-09-19T10:09:19;100608.00;;;24.70
37536;BMP180;23379;51.554;6.736;2023-09-19T10:12:02;100612.00;;;22.90
37536;BMP180;23379;51.554;6.736;2023-09-19T10:14:29;100605.00;;;22.10
37536;BMP180;23379;51.554;6.736;2023-09-19T10:16:57;100594.00;;;23.10
37536;BMP180;23379;51.554;6.736;2023-09-19T10:19:30;100599.00;;;25.70
37536;BMP180;23379;51.554;6.736;2023-09-19T10:21:58;100594.00;;;24.50
37536;BMP180;23379;51.554;6.736;2023-09-19T10:24:24;100592.00;;;23.00
37536;BMP180;23379;51.554;6.736;2023-09-19T10:26:51;100582.00;;;24.20
37536;BMP180;23379;51.554;6.736;2023-09-19T10:29:19;100587.00;;;22.60
37536;BMP180;23379;51.554;6.736;2023-09-19T10:31:47;100575.00;;;21.60
37536;BMP180;23379;51.554;6.736;2023-09-19T10:34:14;100569.00;;;21.70
37536;BMP180;23379;51.554;6.736;2023-09-19T10:36:39;100577.00;;;23.40
37536;BMP180;23379;51.554;6.736;2023-09-19T10:39:10;100574.00;;;23.80
37536;BMP180;23379;51.554;6.736;2023-09-19T10:41:37;100564.00;;;22.70
37536;BMP180;23379;51.554;6.736;2023-09-19T10:44:03;100561.00;;;23.30
37536;BMP180;23379;51.554;6.736;2023-09-19T10:46:30;100573.00;;;24.20
37536;BMP180;23379;51.554;6.736;2023-09-19T10:48:58;100571.00;;;23.60
37536;BMP180;23379;51.554;6.736;2023-09-19T10:51:24;100577.00;;;24.60
37536;BMP180;23379;51.554;6.736;2023-09-19T10:53:54;100576.00;;;25.20
37536;BMP180;23379;51.554;6.736;2023-09-19T10:56:24;100595.00;;;25.30
37536;BMP180;23379;51.554;6.736;2023-09-19T10:59:04;100579.00;;;24.40
37536;BMP180;23379;51.554;6.736;2023-09-19T11:01:41;100582.00;;;24.60
37536;BMP180;23379;51.554;6.736;2023-09-19T11:07:04;100571.00;;;24.30
37536;BMP180;23379;51.554;6.736;2023-09-19T11:14:51;100592.00;;;24.00
37536;BMP180;23379;51.554;6.736;2023-09-19T11:30:48;100576.00;;;22.80
37536;BMP180;23379;51.554;6.736;2023-09-19T11:33:23;100575.00;;;22.10
37536;BMP180;23379;51.554;6.736;2023-09-19T11:36:08;100598.00;;;22.80
37536;BMP180;23379;51.554;6.736;2023-09-19T11:43:45;100574.00;;;23.10
37536;BMP180;23379;51.554;6.736;2023-09-19T11:46:11;100593.00;;;23.00
37536;BMP180;23379;51.554;6.736;2023-09-19T11:48:38;100568.00;;;23.40
37536;BMP180;23379;51.554;6.736;2023-09-19T11:51:09;100557.00;;;24.60
37536;BMP180;23379;51.554;6.736;2023-09-19T11:53:40;100550.00;;;23.60
37536;BMP180;23379;51.554;6.736;2023-09-19T11:56:08;100554.00;;;22.50
37536;BMP180;23379;51.554;6.736;2023-09-19T11:58:35;100550.00;;;22.50
37536;BMP180;23379;51.554;6.736;2023-09-19T12:01:02;100558.00;;;22.40
37536;BMP180;23379;51.554;6.736;2023-09-19T12:03:33;100546.00;;;23.00
37536;BMP180;23379;51.554;6.736;2023-09-19T12:06:00;100550.00;;;22.70
37536;BMP180;23379;51.554;6.736;2023-09-19T12:08:30;100547.00;;;23.20
37536;BMP180;23379;51.554;6.736;2023-09-19T12:10:55;100546.00;;;23.00
37536;BMP180;23379;51.554;6.736;2023-09-19T12:13:21;100538.00;;;22.00
37536;BMP180;23379;51.554;6.736;2023-09-19T12:15:46;100542.00;;;23.10
37536;BMP180;23379;51.554;6.736;2023-09-19T12:20:53;100539.00;;;24.30
37536;BMP180;23379;51.554;6.736;2023-09-19T12:23:20;100539.00;;;24.70
37536;BMP180;23379;51.554;6.736;2023-09-19T12:25:46;100533.00;;;25.20
37536;BMP180;23379;51.554;6.736;2023-09-19T12:28:18;100545.00;;;24.30
37536;BMP180;23379;51.554;6.736;2023-09-19T12:30:43;100525.00;;;23.40
37536;BMP180;23379;51.554;6.736;2023-09-19T12:33:18;100537.00;;;24.00
37536;BMP180;23379;51.554;6.736;2023-09-19T12:35:45;100526.00;;;24.00
37536;BMP180;23379;51.554;6.736;2023-09-19T12:38:10;100518.00;;;24.80
37536;BMP180;23379;51.554;6.736;2023-09-19T12:40:37;100515.00;;;23.10
37536;BMP180;23379;51.554;6.736;2023-09-19T12:43:03;100523.00;;;22.50
37536;BMP180;23379;51.554;6.736;2023-09-19T12:45:32;100516.00;;;23.70
37536;BMP180;23379;51.554;6.736;2023-09-19T12:51:12;100531.00;;;22.20
37536;BMP180;23379;51.554;6.736;2023-09-19T12:56:07;100521.00;;;22.70
37536;BMP180;23379;51.554;6.736;2023-09-19T12:58:34;100508.00;;;23.50
37536;BMP180;23379;51.554;6.736;2023-09-19T13:01:00;100518.00;;;24.10
37536;BMP180;23379;51.554;6.736;2023-09-19T13:03:28;100512.00;;;24.30
37536;BMP180;23379;51.554;6.736;2023-09-19T13:05:55;100520.00;;;23.60
37536;BMP180;23379;51.554;6.736;2023-09-19T13:08:21;100522.00;;;23.60
37536;BMP180;23379;51.554;6.736;2023-09-19T13:11:06;100522.00;;;23.70
37536;BMP180;23379;51.554;6.736;2023-09-19T13:13:32;100517.00;;;23.40
37536;BMP180;23379;51.554;6.736;2023-09-19T13:15:58;100517.00;;;24.40
37536;BMP180;23379;51.554;6.736;2023-09-19T13:18:24;100515.00;;;24.80
37536;BMP180;23379;51.554;6.736;2023-09-19T13:21:06;100518.00;;;25.60
37536;BMP180;23379;51.554;6.736;2023-09-19T13:23:37;100532.00;;;25.30
37536;BMP180;23379;51.554;6.736;2023-09-19T13:26:03;100516.00;;;24.40
37536;BMP180;23379;51.554;6.736;2023-09-19T13:28:30;100524.00;;;24.30
37536;BMP180;23379;51.554;6.736;2023-09-19T13:30:56;100523.00;;;23.40
37536;BMP180;23379;51.554;6.736;2023-09-19T13:33:22;100532.00;;;22.50
37536;BMP180;23379;51.554;6.736;2023-09-19T13:35:47;100528.00;;;22.20
37536;BMP180;23379;51.554;6.736;2023-09-19T13:38:13;100521.00;;;21.70
37536;BMP180;23379;51.554;6.736;2023-09-19T13:40:39;100525.00;;;21.70
37536;BMP180;23379;51.554;6.736;2023-09-19T13:43:11;100528.00;;;21.00
37536;BMP180;23379;51.554;6.736;2023-09-19T13:45:36;100525.00;;;20.70
37536;BMP180;23379;51.554;6.736;2023-09-19T13:48:02;100530.00;;;20.80
37536;BMP180;23379;51.554;6.736;2023-09-19T13:50:27;100519.00;;;21.50
37536;BMP180;23379;51.554;6.736;2023-09-19T13:52:54;100529.00;;;21.20
37536;BMP180;23379;51.554;6.736;2023-09-19T13:55:19;100529.00;;;20.90
37536;BMP180;23379;51.554;6.736;2023-09-19T13:57:48;100531.00;;;20.40
37536;BMP180;23379;51.554;6.736;2023-09-19T14:00:19;100529.00;;;20.80
37536;BMP180;23379;51.554;6.736;2023-09-19T14:02:44;100522.00;;;20.40
37536;BMP180;23379;51.554;6.736;2023-09-19T14:05:10;100525.00;;;20.40
37536;BMP180;23379;51.554;6.736;2023-09-19T14:07:40;100530.00;;;20.30
37536;BMP180;23379;51.554;6.736;2023-09-19T14:10:06;100524.00;;;20.20
37536;BMP180;23379;51.554;6.736;2023-09-19T14:12:33;100527.00;;;19.90
37536;BMP180;23379;51.554;6.736;2023-09-19T14:14:59;100528.00;;;20.00
37536;BMP180;23379;51.554;6.736;2023-09-19T14:17:25;100530.00;;;20.00
37536;BMP180;23379;51.554;6.736;2023-09-19T14:19:50;100529.00;;;20.00
37536;BMP180;23379;51.554;6.736;2023-09-19T14:22:16;100529.00;;;20.00
37536;BMP180;23379;51.554;6.736;2023-09-19T14:24:42;100522.00;;;20.40
37536;BMP180;23379;51.554;6.736;2023-09-19T14:27:07;100518.00;;;20.30
37536;BMP180;23379;51.554;6.736;2023-09-19T14:29:34;100522.00;;;20.20
37536;BMP180;23379;51.554;6.736;2023-09-19T14:31:59;100534.00;;;20.10
37536;BMP180;23379;51.554;6.736;2023-09-19T14:34:24;100514.00;;;19.80
37536;BMP180;23379;51.554;6.736;2023-09-19T14:36:50;100521.00;;;19.90
37536;BMP180;23379;51.554;6.736;2023-09-19T14:39:15;100525.00;;;20.00
37536;BMP180;23379;51.554;6.736;2023-09-19T14:41:42;100521.00;;;20.10
37536;BMP180;23379;51.554;6.736;2023-09-19T14:44:07;100525.00;;;20.10
37536;BMP180;23379;51.554;6.736;2023-09-19T14:46:35;100523.00;;;20.20
37536;BMP180;23379;51.554;6.736;2023-09-19T14:49:00;100513.00;;;20.10